Bryan, Texas
Current Conditions -  °F | °C
As of 6:35 PM on Monday 22 Dec 2014 (Local Time) from KCFD Reporting Station
Clear Clear  
Wind Chill: 16°   Ceiling: Unl
Heat Index: 16°   Visibility: 10mi
Dew Point: 13°   Wind: 3mph
Humidity: 83%   Direction: 210°SSW
Pressure: 29.64"   Gusts: NA
Location:  30.67°N, 96.37°W
Report Text: KCFD 230035Z AUTO 21003KT 10SM CLR 16/13 A2964 RMK AO2 T01570128
Loading
Personal Weather Stations






























Interactive Weather Map New forecast layout! Learn more

10-Day Weather Forecast

Advertisements
Track Severe Weather on mobile